Nyala, Nevada Weather observations

Data are for observation ending at time listed.
 Day   Time    Ave.   Ave.  Ave.  Vector   Max.   Stn.    Total    Solar   Ave.  
  of    of     Air    Rel.  Wind   Wind    Wind   Baro.  Precip.   Rad.    Soil  
Year   Day     Temp.  Hum.  Speed  Dir.    Gust   Pres.                    Temp. 
2015   (PST)    F      %     mph   deg.    mph     mb.     in.     W/m2     F   
------------------------------------------------------------------------------
 209   10:00   76.2    17    3.1     7      8.8    856     0.00     363    77.4
 209   11:00   79.8    15    3.1   356      9.1    856     0.00     408    78.4
 209   12:00   83.9    14    3.0   310      9.9    856     0.00     428    79.9
 209   13:00   87.0    13    2.5   292      8.0    855     0.00     424    82.4
 209   14:00   88.7    12    2.6   306      9.9    854     0.00     395    85.7
 209   15:00   89.3    13    3.3   253     10.6    854     0.00     342    88.9
 209   16:00   89.9    11    3.0   249     13.7    853     0.00     270    91.5
 209   17:00   89.3    11    2.6   350     10.5    853     0.00     188    93.3
 209   18:00   88.0    10    2.5    17      7.2    853     0.00     101    94.0
 209   19:00   84.1    12    0.8     5      2.3    853     0.00      23    93.8
 209   20:00   78.6    14    4.9   108     10.2    853     0.00       0    92.4
 209   21:00   77.6    13    6.4   102     10.1    854     0.00       0    90.5
 209   22:00   77.1    14    5.8   104     13.7    854     0.00       0    88.8
 209   23:00   67.5    24    1.6   120      4.3    855     0.00       0    87.3
 210    0:00   66.0    27    2.7   118      7.2    855     0.00       0    85.8
 210    1:00   66.8    22    1.4   206      4.5    855     0.00       0    84.3
 210    2:00   60.8    33    1.9   159      5.2    856     0.00       0    83.0
 210    3:00   57.9    40    3.3   170      5.7    856     0.00       0    81.6
 210    4:00   55.8    46    4.1   182      6.5    856     0.00       0    80.4
 210    5:00   55.4    45    4.0   179      6.1    856     0.00       1    79.1
 210    6:00   57.8    40    3.9   181      5.9    857     0.00      22    77.9
 210    7:00   65.6    33    3.4   230      6.4    858     0.00     117    76.9
 210    8:00   72.6    20    1.5   265      4.3    858     0.00     214    76.7
 210    9:00   77.5    15    1.8   345      5.3    858     0.00     296    77.1

Return to Nyala, Nevada graphs page.


Western Regional Climate Center,wrcc@dri.edu